Time;durP1;ratioP1;P1;durP2;ratioP2;P2;SDS_P1;SDS_P2;PMS_P1;PMS_P2;Temp;Humidity;BMP_temperature;BMP_pressure;BME280_temperature;BME280_humidity;BME280_pressure;Samples;Min_cycle;Max_cycle;Signal;HPM_P1;HPM_P2
2021/12/27 00:00:16;;;;;;;14.50;12.40;;;6.30;99.90;;;;;;5076055;28;20467;-68
2021/12/27 00:02:43;;;;;;;14.70;12.10;;;6.30;99.90;;;;;;5076068;28;20445;-68
2021/12/27 00:05:11;;;;;;;15.00;12.03;;;6.30;99.90;;;;;;5076047;28;20445;-68
2021/12/27 00:07:37;;;;;;;14.83;11.87;;;6.30;99.90;;;;;;5075458;28;20528;-68
2021/12/27 00:10:06;;;;;;;15.60;12.13;;;6.30;99.90;;;;;;5075833;28;20475;-67
2021/12/27 00:12:33;;;;;;;13.97;11.80;;;6.30;99.90;;;;;;5075892;28;20452;-67
2021/12/27 00:15:01;;;;;;;13.73;11.20;;;6.30;99.90;;;;;;5075872;28;20425;-67
2021/12/27 00:17:28;;;;;;;16.00;11.60;;;6.30;99.90;;;;;;5075231;28;20850;-67
2021/12/27 00:19:55;;;;;;;14.60;10.83;;;6.30;99.90;;;;;;5075629;28;20441;-67
2021/12/27 00:22:22;;;;;;;13.33;10.40;;;6.30;99.90;;;;;;5075537;28;20459;-67
2021/12/27 00:24:49;;;;;;;16.40;11.40;;;6.30;99.90;;;;;;5075636;28;20448;-67
2021/12/27 00:27:16;;;;;;;12.27;10.67;;;6.30;99.90;;;;;;5075567;28;20454;-67
2021/12/27 00:29:44;;;;;;;13.30;10.33;;;6.30;99.90;;;;;;5075429;28;20455;-67
2021/12/27 00:32:12;;;;;;;15.63;10.97;;;6.30;99.90;;;;;;5075393;28;20448;-67
2021/12/27 00:34:39;;;;;;;12.90;10.90;;;6.30;99.90;;;;;;5075342;28;20464;-68
2021/12/27 00:37:06;;;;;;;13.20;10.97;;;6.30;99.90;;;;;;5075316;28;20488;-68
2021/12/27 00:39:34;;;;;;;15.77;11.10;;;6.30;99.90;;;;;;5075330;28;20448;-68
2021/12/27 00:42:02;;;;;;;16.70;12.03;;;6.30;99.90;;;;;;5074950;28;20986;-68
2021/12/27 00:44:29;;;;;;;14.80;11.67;;;6.30;99.90;;;;;;5075252;28;20440;-68
2021/12/27 00:46:56;;;;;;;14.10;10.93;;;6.30;99.90;;;;;;5075182;28;20448;-68
2021/12/27 00:49:24;;;;;;;15.60;12.80;;;6.30;99.90;;;;;;5075136;28;20455;-68
2021/12/27 00:51:51;;;;;;;16.70;12.00;;;6.30;99.90;;;;;;5075041;28;20879;-68
2021/12/27 00:54:18;;;;;;;16.47;12.47;;;6.30;99.90;;;;;;5074749;28;20957;-68
2021/12/27 00:56:45;;;;;;;16.37;11.97;;;6.30;99.90;;;;;;5074921;28;20482;-68
2021/12/27 00:59:12;;;;;;;14.80;12.03;;;6.30;99.90;;;;;;5074974;28;20809;-67
2021/12/27 01:01:40;;;;;;;16.20;12.00;;;6.30;99.90;;;;;;5074507;28;20460;-67
2021/12/27 01:04:07;;;;;;;15.17;12.60;;;6.30;99.90;;;;;;5074833;28;20541;-67
2021/12/27 01:06:35;;;;;;;16.70;13.00;;;6.30;99.90;;;;;;5074822;28;20460;-67
2021/12/27 01:09:03;;;;;;;20.10;13.23;;;6.30;99.90;;;;;;5074443;28;20946;-67
2021/12/27 01:11:40;;;;;;;18.23;12.10;;;6.30;99.90;;;;;;5074363;28;20476;-68
2021/12/27 01:14:12;;;;;;;18.50;12.17;;;6.30;99.90;;;;;;5074394;28;20973;-68
2021/12/27 01:16:39;;;;;;;17.10;13.30;;;6.30;99.90;;;;;;5074618;28;20483;-68
2021/12/27 01:19:07;;;;;;;15.63;12.23;;;6.30;99.90;;;;;;5073753;28;20449;-68
2021/12/27 01:21:35;;;;;;;18.23;12.43;;;6.30;99.90;;;;;;5074430;28;20520;-68
2021/12/27 01:24:03;;;;;;;13.30;11.57;;;6.30;99.90;;;;;;5074186;28;20995;-67
2021/12/27 01:26:30;;;;;;;21.10;14.17;;;6.40;99.90;;;;;;5074410;28;20817;-67
2021/12/27 01:28:59;;;;;;;15.37;11.83;;;6.30;99.90;;;;;;5074414;28;20445;-67
2021/12/27 01:31:26;;;;;;;16.97;11.83;;;6.30;99.90;;;;;;5074254;28;20465;-67
2021/12/27 01:33:54;;;;;;;13.93;12.00;;;6.40;99.90;;;;;;5073885;28;20463;-67
2021/12/27 01:36:21;;;;;;;16.80;12.13;;;6.40;99.90;;;;;;5074226;28;20456;-67
2021/12/27 01:38:49;;;;;;;18.50;13.00;;;6.40;99.90;;;;;;5074102;28;20477;-67
2021/12/27 01:41:17;;;;;;;16.10;11.17;;;6.40;99.90;;;;;;5074105;28;20472;-67
2021/12/27 01:43:44;;;;;;;14.97;12.00;;;6.40;99.90;;;;;;5074209;28;20445;-67
2021/12/27 01:46:13;;;;;;;13.40;11.27;;;6.40;99.90;;;;;;5074079;28;20448;-68
2021/12/27 01:48:42;;;;;;;16.17;12.37;;;6.40;99.90;;;;;;5073913;28;20440;-68
2021/12/27 01:51:12;;;;;;;14.93;11.93;;;6.40;99.90;;;;;;5074092;28;20468;-68
2021/12/27 01:53:42;;;;;;;15.60;12.73;;;6.40;99.90;;;;;;5074073;28;20437;-68
2021/12/27 01:56:11;;;;;;;19.03;13.60;;;6.40;99.90;;;;;;5073960;28;20463;-67
2021/12/27 01:58:39;;;;;;;17.60;13.03;;;6.40;99.90;;;;;;5073489;28;21001;-67
2021/12/27 02:01:08;;;;;;;15.57;12.83;;;6.40;99.90;;;;;;5073808;28;20468;-67
2021/12/27 02:03:35;;;;;;;17.37;12.37;;;6.40;99.90;;;;;;5073542;28;20431;-67
2021/12/27 02:06:05;;;;;;;20.83;12.33;;;6.40;99.90;;;;;;5073793;28;20449;-67
2021/12/27 02:08:32;;;;;;;17.50;13.13;;;6.50;99.90;;;;;;5073751;28;20498;-67
2021/12/27 02:10:59;;;;;;;16.50;11.97;;;6.40;99.90;;;;;;5073620;28;20475;-67
2021/12/27 02:13:27;;;;;;;15.57;11.30;;;6.40;99.90;;;;;;5073395;28;20957;-67
2021/12/27 02:15:54;;;;;;;17.03;11.83;;;6.50;99.90;;;;;;5073653;28;20449;-67
2021/12/27 02:18:20;;;;;;;13.87;10.77;;;6.50;99.90;;;;;;5073529;28;20476;-67
2021/12/27 02:20:49;;;;;;;15.47;11.40;;;6.50;99.90;;;;;;5073511;28;20501;-68
2021/12/27 02:23:17;;;;;;;13.10;11.30;;;6.50;99.90;;;;;;5073539;28;20445;-68
2021/12/27 02:25:45;;;;;;;17.13;11.47;;;6.50;99.90;;;;;;5073212;28;20938;-68
2021/12/27 02:28:14;;;;;;;14.13;11.47;;;6.50;99.90;;;;;;5073997;28;20452;-68
2021/12/27 02:30:42;;;;;;;15.33;11.90;;;6.50;99.90;;;;;;5073246;28;20483;-68
2021/12/27 02:33:10;;;;;;;16.90;12.20;;;6.50;99.90;;;;;;5073247;28;20444;-68
2021/12/27 02:35:40;;;;;;;15.00;11.80;;;6.50;99.90;;;;;;5073140;28;20968;-68
2021/12/27 02:38:10;;;;;;;14.30;11.17;;;6.50;99.90;;;;;;5073036;28;20985;-68
2021/12/27 02:40:39;;;;;;;14.03;11.33;;;6.50;99.90;;;;;;5073350;28;20472;-68
2021/12/27 02:43:08;;;;;;;11.80;10.53;;;6.50;99.90;;;;;;5073370;28;20452;-68
2021/12/27 02:45:37;;;;;;;12.30;10.53;;;6.50;99.90;;;;;;5073355;28;20452;-68
2021/12/27 02:48:05;;;;;;;14.07;9.93;;;6.50;99.90;;;;;;5073322;28;20448;-68
2021/12/27 02:50:33;;;;;;;12.73;9.90;;;6.50;99.90;;;;;;5073211;28;20535;-68
2021/12/27 02:53:00;;;;;;;13.93;10.53;;;6.50;99.90;;;;;;5073296;28;20456;-68
2021/12/27 02:55:29;;;;;;;14.03;11.17;;;6.50;99.90;;;;;;5073201;28;20444;-68
2021/12/27 02:57:56;;;;;;;13.37;11.23;;;6.60;99.90;;;;;;5072821;28;21013;-68
2021/12/27 03:00:27;;;;;;;13.40;10.80;;;6.60;99.90;;;;;;5073144;28;20464;-68
2021/12/27 03:02:55;;;;;;;14.83;10.20;;;6.50;99.90;;;;;;5073225;28;20491;-68
2021/12/27 03:05:24;;;;;;;12.80;9.77;;;6.50;99.90;;;;;;5073113;28;20444;-68
2021/12/27 03:07:52;;;;;;;14.33;10.87;;;6.50;99.90;;;;;;5073157;28;20441;-68
2021/12/27 03:10:22;;;;;;;17.63;12.60;;;6.50;99.90;;;;;;5073045;28;20469;-68
2021/12/27 03:12:52;;;;;;;15.23;10.93;;;6.50;99.90;;;;;;5073074;28;20441;-68
2021/12/27 03:15:20;;;;;;;15.40;12.60;;;6.50;99.90;;;;;;5073083;28;20425;-68
2021/12/27 03:17:49;;;;;;;19.37;12.27;;;6.50;99.90;;;;;;5073027;28;20526;-68
2021/12/27 03:20:17;;;;;;;16.17;12.37;;;6.50;99.90;;;;;;5072659;28;21015;-68
2021/12/27 03:22:44;;;;;;;15.70;11.87;;;6.50;99.90;;;;;;5072637;28;20445;-68
2021/12/27 03:25:15;;;;;;;12.90;10.40;;;6.50;99.90;;;;;;5073008;28;20444;-68
2021/12/27 03:27:42;;;;;;;12.63;10.20;;;6.40;99.90;;;;;;5072950;28;20432;-68
2021/12/27 03:30:13;;;;;;;17.10;12.20;;;6.50;99.90;;;;;;5072856;28;20472;-68
2021/12/27 03:32:40;;;;;;;14.40;11.20;;;6.50;99.90;;;;;;5072934;28;20437;-68
2021/12/27 03:35:12;;;;;;;15.57;12.23;;;6.50;99.90;;;;;;5072717;28;20452;-68
2021/12/27 03:37:40;;;;;;;14.77;12.00;;;6.50;99.90;;;;;;5072805;28;20487;-68
2021/12/27 03:40:10;;;;;;;15.80;11.10;;;6.50;99.90;;;;;;5072777;28;20471;-68
2021/12/27 03:42:37;;;;;;;16.70;11.27;;;6.50;99.90;;;;;;5075110;28;20443;-68
2021/12/27 03:45:06;;;;;;;12.57;10.60;;;6.50;99.90;;;;;;5076173;28;20439;-67
2021/12/27 03:47:34;;;;;;;14.57;11.70;;;6.50;99.90;;;;;;5076386;28;20472;-67
2021/12/27 03:50:01;;;;;;;12.57;10.27;;;6.50;99.90;;;;;;5077091;28;20436;-67
2021/12/27 03:52:28;;;;;;;12.83;10.57;;;6.50;99.90;;;;;;5076256;28;20444;-67
2021/12/27 03:54:54;;;;;;;15.20;12.47;;;6.50;99.90;;;;;;5076176;28;20810;-68
2021/12/27 03:57:21;;;;;;;15.67;11.60;;;6.60;99.90;;;;;;5076136;28;20440;-68
2021/12/27 04:00:14;;;;;;;11.80;10.30;;;6.50;99.90;;;;;;5076060;28;20456;-68
2021/12/27 04:02:41;;;;;;;11.90;10.20;;;6.60;99.90;;;;;;5075678;28;20429;-68
2021/12/27 04:05:09;;;;;;;12.07;10.70;;;6.60;99.90;;;;;;5076040;28;20443;-68
2021/12/27 04:07:37;;;;;;;12.37;11.07;;;6.60;99.90;;;;;;5076081;28;20444;-68
2021/12/27 04:10:06;;;;;;;16.37;10.97;;;6.60;99.90;;;;;;5075870;28;20457;-68
2021/12/27 04:12:33;;;;;;;13.13;10.67;;;6.60;99.90;;;;;;5075919;28;20455;-68
2021/12/27 04:14:59;;;;;;;18.23;11.57;;;6.50;99.90;;;;;;5075886;28;20444;-68
2021/12/27 04:17:26;;;;;;;15.60;11.53;;;6.60;99.90;;;;;;5075497;28;20969;-68
2021/12/27 04:19:54;;;;;;;13.33;10.87;;;6.60;99.90;;;;;;5075336;28;21012;-68
2021/12/27 04:22:21;;;;;;;16.60;11.57;;;6.60;99.90;;;;;;5075425;28;20938;-68
2021/12/27 04:24:48;;;;;;;11.10;10.00;;;6.60;99.90;;;;;;5075379;28;20463;-68
2021/12/27 04:27:15;;;;;;;13.03;10.93;;;6.60;99.90;;;;;;5075680;28;20495;-68
2021/12/27 04:29:41;;;;;;;12.00;9.47;;;6.50;99.90;;;;;;5075546;28;20814;-68
2021/12/27 04:32:09;;;;;;;13.70;10.50;;;6.60;99.90;;;;;;5075479;28;20472;-68
2021/12/27 04:34:36;;;;;;;11.10;9.50;;;6.50;99.90;;;;;;5075356;28;20460;-68
2021/12/27 04:37:04;;;;;;;13.23;10.00;;;6.50;99.90;;;;;;5075184;28;20965;-68
2021/12/27 04:39:31;;;;;;;12.13;9.47;;;6.60;99.90;;;;;;5075061;28;21012;-68
2021/12/27 04:41:58;;;;;;;10.93;9.73;;;6.60;99.90;;;;;;5075290;28;20471;-68
2021/12/27 04:44:25;;;;;;;15.20;10.27;;;6.60;99.90;;;;;;5075018;28;20440;-68
2021/12/27 04:46:52;;;;;;;11.57;9.63;;;6.60;99.90;;;;;;5075293;28;20453;-68
2021/12/27 04:49:18;;;;;;;13.67;10.43;;;6.60;99.90;;;;;;5075055;28;20437;-68
2021/12/27 04:51:45;;;;;;;12.50;10.13;;;6.60;99.90;;;;;;5075936;28;20472;-68
2021/12/27 04:54:15;;;;;;;12.27;10.43;;;6.60;99.90;;;;;;5075417;28;20440;-68
2021/12/27 04:56:41;;;;;;;13.40;10.53;;;6.60;99.90;;;;;;5075219;28;20448;-69
2021/12/27 04:59:08;;;;;;;10.87;9.10;;;6.60;99.90;;;;;;5074770;28;20564;-68
2021/12/27 05:01:35;;;;;;;12.90;9.63;;;6.60;99.90;;;;;;5074887;28;20479;-68
2021/12/27 05:04:02;;;;;;;12.17;9.60;;;6.60;99.90;;;;;;5074927;28;20494;-68
2021/12/27 05:06:29;;;;;;;11.97;9.17;;;6.60;99.90;;;;;;5074957;28;20437;-68
2021/12/27 05:08:56;;;;;;;11.47;9.20;;;6.60;99.90;;;;;;5074851;28;20433;-68
2021/12/27 05:11:24;;;;;;;13.83;11.13;;;6.60;99.90;;;;;;5074442;28;20982;-68
2021/12/27 05:13:51;;;;;;;10.80;8.03;;;6.60;99.90;;;;;;5074517;28;20965;-68
2021/12/27 05:16:17;;;;;;;10.80;9.57;;;6.60;99.90;;;;;;5074776;28;20456;-68
2021/12/27 05:18:44;;;;;;;11.13;8.97;;;6.60;99.90;;;;;;5074594;28;20488;-68
2021/12/27 05:21:11;;;;;;;10.50;9.10;;;6.70;99.90;;;;;;5074579;28;20465;-68
2021/12/27 05:23:37;;;;;;;11.33;9.40;;;6.60;99.90;;;;;;5074617;28;20445;-68
2021/12/27 05:26:04;;;;;;;10.97;9.47;;;6.70;99.90;;;;;;5075529;28;20914;-68
2021/12/27 05:28:32;;;;;;;11.90;9.23;;;6.70;99.90;;;;;;5074523;28;20449;-68
2021/12/27 05:30:59;;;;;;;12.40;9.80;;;6.70;99.90;;;;;;5074238;28;20534;-68
2021/12/27 05:33:26;;;;;;;10.70;8.60;;;6.70;99.90;;;;;;5074328;28;20451;-68
2021/12/27 05:35:53;;;;;;;11.10;9.27;;;6.70;99.90;;;;;;5074511;28;20433;-68
2021/12/27 05:38:19;;;;;;;11.37;8.73;;;6.70;99.90;;;;;;5074208;28;20489;-68
2021/12/27 05:40:46;;;;;;;13.20;9.20;;;6.70;99.90;;;;;;5074352;28;20469;-68
2021/12/27 05:43:13;;;;;;;14.33;10.87;;;6.60;99.90;;;;;;5074790;28;20425;-68
2021/12/27 05:45:41;;;;;;;11.40;9.90;;;6.70;99.90;;;;;;5074262;28;20440;-67
2021/12/27 05:48:08;;;;;;;11.30;9.70;;;6.70;99.90;;;;;;5074150;28;20455;-67
2021/12/27 05:50:35;;;;;;;15.17;10.47;;;6.70;99.90;;;;;;5074112;28;20465;-67
2021/12/27 05:53:03;;;;;;;13.33;11.43;;;6.70;99.90;;;;;;5074017;28;20476;-67
2021/12/27 05:55:30;;;;;;;11.40;9.60;;;6.70;99.90;;;;;;5073971;28;20467;-67
2021/12/27 05:57:57;;;;;;;12.60;8.40;;;6.70;99.90;;;;;;5073904;28;20441;-67
2021/12/27 06:00:24;;;;;;;11.13;9.00;;;6.70;99.90;;;;;;5073529;28;20970;-67
2021/12/27 06:02:54;;;;;;;11.67;10.33;;;6.70;99.90;;;;;;5073526;28;20873;-67
2021/12/27 06:05:22;;;;;;;11.60;9.23;;;6.70;99.90;;;;;;5073374;28;20440;-67
2021/12/27 06:07:50;;;;;;;11.60;9.43;;;6.70;99.90;;;;;;5073767;28;20448;-67
2021/12/27 06:10:17;;;;;;;12.83;9.37;;;6.80;99.90;;;;;;5073689;28;20463;-67
2021/12/27 06:12:45;;;;;;;13.40;9.93;;;6.70;99.90;;;;;;5073361;28;20943;-67
2021/12/27 06:15:13;;;;;;;11.00;9.00;;;6.80;99.90;;;;;;5073697;28;20444;-67
2021/12/27 06:17:42;;;;;;;12.07;9.63;;;6.80;99.90;;;;;;5073630;28;20447;-67
2021/12/27 06:20:12;;;;;;;10.07;8.97;;;6.70;99.90;;;;;;5073180;28;20993;-67
2021/12/27 06:22:44;;;;;;;11.13;9.47;;;6.70;99.90;;;;;;5073383;28;20444;-67
2021/12/27 06:25:11;;;;;;;12.50;9.80;;;6.70;99.90;;;;;;5073631;28;20791;-67
2021/12/27 06:27:38;;;;;;;12.07;10.07;;;6.80;99.90;;;;;;5073232;28;20976;-67
2021/12/27 06:30:07;;;;;;;12.30;8.87;;;6.70;99.90;;;;;;5073132;28;20440;-67
2021/12/27 06:32:35;;;;;;;11.00;8.80;;;6.80;99.90;;;;;;5073517;28;20441;-67
2021/12/27 06:35:02;;;;;;;11.60;9.30;;;6.80;99.90;;;;;;5073082;28;20460;-67
2021/12/27 06:37:30;;;;;;;11.20;9.60;;;6.80;99.90;;;;;;5073424;28;20455;-67
2021/12/27 06:39:57;;;;;;;12.53;9.70;;;6.80;99.90;;;;;;5073280;28;20483;-67
2021/12/27 06:42:23;;;;;;;16.57;9.90;;;6.80;99.90;;;;;;5073359;28;20444;-67
2021/12/27 06:44:50;;;;;;;13.00;10.50;;;6.80;99.90;;;;;;5073339;28;20448;-67
2021/12/27 06:47:17;;;;;;;12.97;10.00;;;6.80;99.90;;;;;;5072994;28;20943;-67
2021/12/27 06:49:44;;;;;;;13.50;9.80;;;6.80;99.90;;;;;;5072995;28;20965;-67
2021/12/27 06:52:12;;;;;;;10.63;9.13;;;6.80;99.90;;;;;;5073205;28;20461;-67
2021/12/27 06:54:40;;;;;;;13.40;9.77;;;6.80;99.90;;;;;;5073285;28;20452;-67
2021/12/27 06:57:07;;;;;;;11.80;9.07;;;6.80;99.90;;;;;;5073226;28;20453;-67
2021/12/27 06:59:33;;;;;;;13.77;9.80;;;6.80;99.90;;;;;;5073154;28;20479;-67
2021/12/27 07:02:00;;;;;;;11.73;9.13;;;6.90;99.90;;;;;;5073108;28;20472;-67
2021/12/27 07:04:27;;;;;;;12.43;9.73;;;6.80;99.90;;;;;;5073164;28;20842;-67
2021/12/27 07:06:54;;;;;;;14.80;9.20;;;6.80;99.90;;;;;;5073165;28;20469;-67
2021/12/27 07:09:21;;;;;;;13.63;9.40;;;6.90;99.90;;;;;;5073160;28;20448;-67
2021/12/27 07:11:50;;;;;;;14.90;10.13;;;6.90;99.90;;;;;;5072721;28;20511;-67
2021/12/27 07:14:16;;;;;;;14.00;10.80;;;6.90;99.90;;;;;;5072780;28;20946;-67
2021/12/27 07:16:44;;;;;;;12.50;10.33;;;6.90;99.90;;;;;;5074104;28;20452;-67
2021/12/27 07:19:11;;;;;;;12.47;9.77;;;6.90;99.90;;;;;;5076817;28;20484;-67
2021/12/27 07:21:37;;;;;;;12.37;9.20;;;6.90;99.90;;;;;;5076805;28;20460;-67
2021/12/27 07:24:05;;;;;;;12.40;9.30;;;6.90;99.90;;;;;;5076850;28;20948;-67
2021/12/27 07:26:32;;;;;;;9.63;8.20;;;6.90;99.90;;;;;;5076775;28;20451;-67
2021/12/27 07:29:00;;;;;;;11.40;9.33;;;6.90;99.90;;;;;;5076751;28;20447;-67
2021/12/27 07:31:27;;;;;;;12.20;9.37;;;6.90;99.90;;;;;;5076602;28;20475;-67
2021/12/27 07:33:54;;;;;;;14.60;10.83;;;6.90;99.90;;;;;;5076429;28;20475;-67
2021/12/27 07:36:21;;;;;;;11.80;8.73;;;6.90;99.90;;;;;;5076575;28;20539;-67
2021/12/27 07:38:48;;;;;;;13.50;9.30;;;6.90;99.90;;;;;;5076459;28;20444;-67
2021/12/27 07:41:15;;;;;;;10.00;7.97;;;6.90;99.90;;;;;;5076474;28;20464;-67
2021/12/27 07:43:42;;;;;;;11.80;8.80;;;6.90;99.90;;;;;;5076444;28;20451;-68
2021/12/27 07:46:10;;;;;;;11.63;9.77;;;6.90;99.90;;;;;;5076119;28;20444;-67
2021/12/27 07:48:37;;;;;;;10.60;8.40;;;6.90;99.90;;;;;;5076376;28;20451;-67
2021/12/27 07:51:03;;;;;;;13.10;9.90;;;6.90;99.90;;;;;;5076009;28;20461;-67
2021/12/27 07:53:31;;;;;;;12.20;8.53;;;6.90;99.90;;;;;;5076456;28;20501;-67
2021/12/27 07:55:57;;;;;;;13.10;9.30;;;6.90;99.90;;;;;;5076560;28;20448;-67
2021/12/27 07:58:24;;;;;;;12.27;8.30;;;6.90;99.90;;;;;;5076317;28;20815;-68
2021/12/27 08:00:52;;;;;;;12.60;8.13;;;6.90;99.90;;;;;;5076128;28;20491;-67
2021/12/27 08:03:21;;;;;;;12.43;9.40;;;6.90;99.90;;;;;;5076124;28;20884;-67
2021/12/27 08:05:49;;;;;;;13.90;8.60;;;6.80;99.90;;;;;;5075679;28;20926;-67
2021/12/27 08:08:16;;;;;;;11.37;8.70;;;6.80;99.90;;;;;;5076026;28;20441;-67
2021/12/27 08:10:44;;;;;;;11.27;7.77;;;6.80;99.90;;;;;;5075881;28;20487;-67
2021/12/27 08:13:11;;;;;;;13.60;9.60;;;6.80;99.90;;;;;;5076306;28;20445;-67
2021/12/27 08:15:38;;;;;;;9.80;8.80;;;6.80;99.90;;;;;;5075661;28;20789;-67
2021/12/27 08:18:05;;;;;;;11.40;8.63;;;6.90;99.90;;;;;;5075589;28;20436;-67
2021/12/27 08:20:33;;;;;;;10.43;8.40;;;6.90;99.90;;;;;;5075153;28;20488;-67
2021/12/27 08:23:00;;;;;;;11.37;8.40;;;6.90;99.90;;;;;;5075526;28;20830;-67
2021/12/27 08:25:27;;;;;;;9.70;8.43;;;6.90;99.90;;;;;;5075551;28;20452;-67
2021/12/27 08:27:54;;;;;;;11.93;8.73;;;7.00;99.90;;;;;;5075150;28;20519;-67
2021/12/27 08:30:21;;;;;;;10.97;9.17;;;7.00;99.90;;;;;;5075431;28;20460;-67
2021/12/27 08:32:47;;;;;;;12.07;9.07;;;7.00;99.90;;;;;;5075452;28;20447;-67
2021/12/27 08:35:15;;;;;;;11.30;9.17;;;7.00;99.90;;;;;;5074960;28;20810;-67
2021/12/27 08:37:44;;;;;;;9.77;8.80;;;7.00;99.90;;;;;;5075455;28;20795;-67
2021/12/27 08:40:13;;;;;;;12.10;8.27;;;7.10;99.90;;;;;;5075316;28;20524;-67
2021/12/27 08:42:40;;;;;;;12.83;8.93;;;7.10;99.90;;;;;;5075225;28;20447;-67
2021/12/27 08:45:08;;;;;;;11.10;8.53;;;7.10;99.90;;;;;;5074731;28;20945;-67
2021/12/27 08:47:35;;;;;;;12.50;9.00;;;7.10;99.90;;;;;;5075064;28;20455;-67
2021/12/27 08:50:02;;;;;;;11.50;8.80;;;7.20;99.90;;;;;;5075092;28;20444;-67
2021/12/27 08:52:29;;;;;;;11.50;8.57;;;7.20;99.90;;;;;;5075216;28;20444;-67
2021/12/27 08:54:58;;;;;;;14.40;10.17;;;7.20;99.90;;;;;;5075040;28;20452;-67
2021/12/27 08:57:25;;;;;;;15.80;11.03;;;7.20;99.90;;;;;;5074887;28;20452;-67
2021/12/27 08:59:51;;;;;;;16.83;10.93;;;7.20;99.90;;;;;;5074911;28;20476;-67
2021/12/27 09:02:18;;;;;;;13.73;11.20;;;7.30;99.90;;;;;;5074933;28;20448;-67
2021/12/27 09:04:45;;;;;;;14.73;10.73;;;7.30;99.90;;;;;;5074658;28;20950;-67
2021/12/27 09:07:12;;;;;;;15.70;11.40;;;7.40;99.90;;;;;;5074954;28;20452;-67
2021/12/27 09:09:40;;;;;;;14.93;11.57;;;7.50;99.90;;;;;;5074875;28;20480;-67
2021/12/27 09:12:09;;;;;;;17.80;11.33;;;7.50;99.90;;;;;;5074619;28;20504;-67
2021/12/27 09:14:36;;;;;;;14.63;11.13;;;7.60;99.90;;;;;;5074792;28;20456;-68
2021/12/27 09:17:04;;;;;;;14.73;12.68;;;7.60;99.90;;;;;;5073554;28;20460;-67
2021/12/27 09:19:30;;;;;;;13.47;11.87;;;7.70;99.90;;;;;;5074277;28;20222;-67
2021/12/27 09:21:57;;;;;;;17.33;13.83;;;7.70;99.90;;;;;;5074392;28;20468;-67
2021/12/27 09:24:24;;;;;;;14.73;10.77;;;7.80;99.90;;;;;;5074306;28;20449;-67
2021/12/27 09:26:51;;;;;;;14.03;11.60;;;7.80;99.90;;;;;;5074496;28;20506;-67
2021/12/27 09:29:19;;;;;;;14.20;12.53;;;7.90;99.90;;;;;;5074211;28;20448;-67
2021/12/27 09:31:45;;;;;;;13.20;11.00;;;7.90;99.90;;;;;;5074322;28;20831;-67
2021/12/27 09:34:12;;;;;;;17.73;12.73;;;7.90;99.90;;;;;;5073868;28;20494;-67
2021/12/27 09:36:39;;;;;;;14.93;11.70;;;8.00;99.90;;;;;;5074047;28;20447;-67
2021/12/27 09:39:06;;;;;;;16.90;11.90;;;8.10;99.90;;;;;;5073672;28;20448;-67
2021/12/27 09:41:33;;;;;;;13.00;10.77;;;8.20;99.90;;;;;;5074002;28;20485;-67
2021/12/27 09:44:00;;;;;;;12.60;10.30;;;8.30;99.90;;;;;;5073845;28;20531;-67
2021/12/27 09:46:28;;;;;;;12.20;10.30;;;8.30;99.90;;;;;;5073809;28;21037;-67
2021/12/27 09:48:57;;;;;;;13.20;10.70;;;8.40;99.90;;;;;;5073774;28;20845;-67
2021/12/27 09:51:26;;;;;;;12.20;10.20;;;8.40;99.90;;;;;;5073905;28;20460;-67
2021/12/27 09:53:54;;;;;;;10.43;9.33;;;8.50;99.90;;;;;;5073966;28;20469;-67
2021/12/27 09:56:21;;;;;;;11.47;10.20;;;8.50;99.90;;;;;;5073571;28;20915;-67
2021/12/27 09:58:47;;;;;;;12.37;9.10;;;8.50;99.90;;;;;;5073833;28;20452;-67
2021/12/27 10:01:14;;;;;;;10.50;9.37;;;8.50;99.90;;;;;;5073811;28;20484;-67
2021/12/27 10:03:48;;;;;;;11.50;9.33;;;8.60;99.90;;;;;;5073861;28;20453;-67
2021/12/27 10:06:16;;;;;;;11.30;9.50;;;8.60;99.90;;;;;;5073800;28;20433;-67
2021/12/27 10:08:45;;;;;;;12.63;8.47;;;8.60;99.90;;;;;;5073732;28;20440;-67
2021/12/27 10:11:20;;;;;;;9.60;7.77;;;8.60;99.90;;;;;;5073627;28;20522;-67
2021/12/27 10:14:01;;;;;;;10.97;8.93;;;8.70;99.90;;;;;;5073712;28;20471;-67
2021/12/27 10:16:28;;;;;;;9.47;8.13;;;8.70;99.90;;;;;;5073681;28;20448;-67
2021/12/27 10:18:58;;;;;;;12.17;9.60;;;8.80;99.90;;;;;;5073650;28;20440;-67
2021/12/27 10:21:25;;;;;;;10.53;8.60;;;8.80;99.90;;;;;;5073401;28;20575;-67
2021/12/27 10:24:02;;;;;;;10.83;8.80;;;8.90;99.90;;;;;;5073278;28;20937;-67
2021/12/27 10:26:30;;;;;;;12.67;9.23;;;8.90;99.90;;;;;;5073621;28;20461;-67
2021/12/27 10:29:07;;;;;;;12.00;8.67;;;8.90;99.90;;;;;;5073552;28;20448;-67
2021/12/27 10:31:53;;;;;;;12.17;9.00;;;8.90;99.90;;;;;;5073428;28;20471;-67
2021/12/27 10:34:22;;;;;;;12.00;9.07;;;8.90;99.90;;;;;;5073240;28;20457;-68
2021/12/27 10:37:14;;;;;;;10.30;8.50;;;9.00;99.90;;;;;;5073404;28;20440;-69
2021/12/27 10:39:53;;;;;;;8.80;7.77;;;9.10;99.90;;;;;;5070937;28;20449;-69
2021/12/27 10:42:23;;;;;;;12.40;8.73;;;9.20;99.90;;;;;;5073360;28;20437;-69
2021/12/27 10:44:53;;;;;;;11.00;9.13;;;9.30;99.90;;;;;;5073167;28;20429;-69
2021/12/27 10:47:26;;;;;;;13.43;9.67;;;9.40;99.90;;;;;;5074256;28;20448;-69
2021/12/27 10:50:02;;;;;;;9.03;7.40;;;9.50;99.90;;;;;;5073605;28;20444;-70
2021/12/27 10:52:42;;;;;;;11.00;8.70;;;9.60;99.90;;;;;;5077480;28;20433;-69
2021/12/27 10:55:08;;;;;;;8.50;7.70;;;9.60;99.90;;;;;;5077654;28;20432;-69
2021/12/27 10:57:35;;;;;;;7.83;7.03;;;9.70;99.90;;;;;;5077716;28;20448;-68
2021/12/27 11:00:28;;;;;;;8.47;7.67;;;9.70;99.90;;;;;;5077216;28;20480;-69
2021/12/27 11:02:55;;;;;;;10.13;8.23;;;9.60;99.90;;;;;;5077829;28;20433;-69
2021/12/27 11:05:25;;;;;;;9.00;8.10;;;9.60;99.90;;;;;;5077445;28;20448;-69
2021/12/27 11:07:53;;;;;;;8.87;7.93;;;9.50;99.90;;;;;;5078179;28;20444;-69
2021/12/27 11:10:20;;;;;;;8.80;7.73;;;9.50;99.90;;;;;;5077169;28;20483;-69
2021/12/27 11:12:48;;;;;;;9.73;8.17;;;9.50;99.90;;;;;;5077129;28;20517;-69
2021/12/27 11:15:16;;;;;;;10.70;8.27;;;9.40;99.90;;;;;;5077709;28;20491;-69
2021/12/27 11:17:42;;;;;;;9.30;8.30;;;9.40;99.90;;;;;;5076992;28;20449;-69
2021/12/27 11:20:12;;;;;;;9.37;8.40;;;9.40;99.90;;;;;;5076729;28;20483;-67
2021/12/27 11:22:43;;;;;;;9.87;8.70;;;9.40;99.90;;;;;;5076819;28;20444;-67
2021/12/27 11:25:26;;;;;;;9.50;7.93;;;9.30;99.90;;;;;;5076968;28;20437;-68
2021/12/27 11:27:54;;;;;;;9.30;8.30;;;9.30;99.90;;;;;;5076806;28;20436;-67
2021/12/27 11:30:24;;;;;;;10.67;9.60;;;9.40;99.90;;;;;;5077174;28;20499;-68
2021/12/27 11:33:02;;;;;;;11.07;8.30;;;9.40;99.90;;;;;;5076967;28;20440;-67
2021/12/27 11:35:33;;;;;;;9.30;7.80;;;9.40;99.90;;;;;;5077879;28;20464;-67
2021/12/27 11:38:01;;;;;;;10.07;9.07;;;9.50;99.90;;;;;;5076332;28;20921;-67
2021/12/27 11:40:45;;;;;;;10.13;9.13;;;9.60;99.90;;;;;;5076144;28;20484;-67
2021/12/27 11:43:12;;;;;;;10.80;8.73;;;9.70;99.90;;;;;;5076437;28;20436;-67
2021/12/27 11:45:42;;;;;;;11.03;9.07;;;9.80;99.90;;;;;;5077732;28;20452;-67
2021/12/27 11:48:12;;;;;;;11.57;8.37;;;9.80;99.90;;;;;;5076358;28;20433;-67
2021/12/27 11:51:08;;;;;;;13.20;8.47;;;9.90;99.90;;;;;;5076599;28;20460;-67
2021/12/27 11:53:38;;;;;;;10.20;9.10;;;10.00;99.90;;;;;;5064450;28;20456;-67
2021/12/27 11:56:10;;;;;;;11.33;8.57;;;10.00;99.90;;;;;;5076583;28;20439;-67
2021/12/27 11:58:38;;;;;;;9.13;8.00;;;10.10;99.90;;;;;;5076521;28;20472;-67
2021/12/27 12:01:27;;;;;;;10.77;6.83;;;10.10;99.90;;;;;;5076178;28;20492;-67
2021/12/27 12:03:56;;;;;;;8.07;7.27;;;10.20;99.90;;;;;;5075011;28;20452;-67
2021/12/27 12:06:41;;;;;;;9.67;8.13;;;10.20;99.90;;;;;;5076112;28;20451;-67
2021/12/27 12:09:15;;;;;;;9.60;8.60;;;10.20;99.90;;;;;;5076401;28;20490;-67
2021/12/27 12:11:43;;;;;;;12.50;8.87;;;10.20;99.90;;;;;;5076842;28;20548;-67
2021/12/27 12:14:27;;;;;;;12.87;8.90;;;10.20;99.90;;;;;;5075986;28;20824;-65
2021/12/27 12:16:55;;;;;;;9.93;8.53;;;10.20;99.90;;;;;;5075942;28;20448;-69
2021/12/27 12:19:43;;;;;;;11.33;8.10;;;10.30;99.90;;;;;;5076589;28;20456;-67
2021/12/27 12:22:35;;;;;;;8.07;7.27;;;10.30;99.90;;;;;;5076147;28;20488;-67
2021/12/27 12:25:24;;;;;;;8.30;7.50;;;10.30;99.90;;;;;;5076136;28;20428;-69
2021/12/27 12:27:56;;;;;;;8.47;6.93;;;10.30;99.90;;;;;;5071662;28;20461;-69
2021/12/27 12:30:27;;;;;;;8.70;7.73;;;10.30;99.90;;;;;;5075494;28;20468;-69
2021/12/27 12:33:02;;;;;;;9.27;7.70;;;10.30;99.90;;;;;;5075808;28;20428;-69
2021/12/27 12:35:33;;;;;;;7.70;6.93;;;10.40;99.90;;;;;;5075542;28;20440;-69
2021/12/27 12:38:13;;;;;;;8.87;7.17;;;10.30;99.90;;;;;;5075678;28;20462;-69
2021/12/27 12:40:42;;;;;;;7.33;6.63;;;10.30;99.90;;;;;;5075541;28;20492;-69
2021/12/27 12:43:09;;;;;;;8.60;7.80;;;10.40;99.90;;;;;;5075527;28;20452;-69
2021/12/27 12:45:37;;;;;;;7.57;6.87;;;10.30;99.90;;;;;;5075306;28;20445;-69
2021/12/27 12:48:05;;;;;;;6.87;6.17;;;10.30;99.90;;;;;;5075360;28;20453;-69
2021/12/27 12:50:34;;;;;;;7.63;6.90;;;10.40;99.90;;;;;;5075342;28;20461;-69